Time;durP1;ratioP1;P1;durP2;ratioP2;P2;SDS_P1;SDS_P2;PMS_P1;PMS_P2;Temp;Humidity;BMP_temperature;BMP_pressure;BME280_temperature;BME280_humidity;BME280_pressure;Samples;Min_cycle;Max_cycle;Signal;HPM_P1;HPM_P2
2022/04/01 00:00:44;;;;;;;4.32;1.40;;;1.90;99.90;;;;;;5069009;28;39946;-51
2022/04/01 00:03:11;;;;;;;5.43;1.42;;;2.00;99.90;;;;;;5067187;27;37598;-49
2022/04/01 00:05:39;;;;;;;3.70;1.10;;;1.90;99.90;;;;;;5071038;27;36040;-52
2022/04/01 00:08:08;;;;;;;4.32;1.20;;;2.00;99.90;;;;;;5071163;27;37356;-49
2022/04/01 00:10:36;;;;;;;2.65;0.88;;;1.90;99.90;;;;;;5071264;27;36139;-51
2022/04/01 00:13:05;;;;;;;4.35;1.30;;;1.90;99.90;;;;;;5071197;27;37044;-49
2022/04/01 00:15:33;;;;;;;6.22;1.65;;;2.00;99.90;;;;;;5071026;27;36083;-52
2022/04/01 00:18:01;;;;;;;2.80;1.10;;;2.00;99.90;;;;;;5071071;27;36124;-50
2022/04/01 00:20:28;;;;;;;8.50;1.30;;;2.10;99.90;;;;;;5070995;28;40363;-50
2022/04/01 00:22:56;;;;;;;4.55;0.93;;;2.10;99.90;;;;;;5068874;27;37603;-51
2022/04/01 00:25:24;;;;;;;3.88;1.05;;;2.10;99.90;;;;;;5071272;27;37065;-52
2022/04/01 00:27:51;;;;;;;3.70;1.30;;;2.10;99.90;;;;;;5070774;27;35279;-51
2022/04/01 00:30:20;;;;;;;3.22;1.20;;;2.10;99.90;;;;;;5070693;27;38283;-50
2022/04/01 00:32:47;;;;;;;3.58;1.08;;;2.10;99.90;;;;;;5069656;27;38662;-51
2022/04/01 00:35:15;;;;;;;3.92;1.00;;;2.10;99.90;;;;;;5070614;28;37950;-51
2022/04/01 00:37:43;;;;;;;6.47;1.33;;;2.20;99.90;;;;;;5070241;28;35187;-51
2022/04/01 00:40:12;;;;;;;8.52;1.17;;;2.10;99.90;;;;;;5070211;28;36208;-50
2022/04/01 00:42:41;;;;;;;2.92;0.90;;;2.20;99.90;;;;;;5069346;27;36415;-52
2022/04/01 00:45:10;;;;;;;4.72;1.10;;;2.20;99.90;;;;;;5070538;28;37440;-53
2022/04/01 00:47:39;;;;;;;4.10;1.33;;;2.10;99.90;;;;;;5070370;27;36529;-51
2022/04/01 00:50:08;;;;;;;3.22;1.25;;;2.20;99.90;;;;;;5070747;27;37658;-52
2022/04/01 00:52:36;;;;;;;6.03;1.48;;;2.20;99.90;;;;;;5068838;27;37484;-52
2022/04/01 00:55:05;;;;;;;3.95;1.33;;;2.10;99.90;;;;;;5069958;28;42010;-51
2022/04/01 00:57:33;;;;;;;6.60;1.60;;;2.10;99.90;;;;;;5069583;28;35805;-49
2022/04/01 01:00:00;;;;;;;3.60;1.20;;;2.20;99.90;;;;;;5069894;28;39202;-50
2022/04/01 01:02:27;;;;;;;3.20;1.05;;;2.20;99.90;;;;;;5067523;27;36438;-51
2022/04/01 01:04:56;;;;;;;5.20;1.15;;;2.20;99.90;;;;;;5068816;28;39107;-50
2022/04/01 01:07:24;;;;;;;4.20;1.10;;;2.10;99.90;;;;;;5069355;27;36074;-51
2022/04/01 01:09:51;;;;;;;4.72;1.10;;;2.10;99.90;;;;;;5069610;27;37700;-52
2022/04/01 01:12:18;;;;;;;3.55;1.17;;;2.10;99.90;;;;;;5069938;27;37913;-53
2022/04/01 01:14:46;;;;;;;5.22;1.23;;;2.10;99.90;;;;;;5070790;27;39747;-50
2022/04/01 01:17:14;;;;;;;3.45;1.10;;;2.10;99.90;;;;;;5073329;27;36259;-50
2022/04/01 01:19:45;;;;;;;4.03;1.25;;;2.10;99.90;;;;;;5073726;27;37574;-53
2022/04/01 01:22:15;;;;;;;4.28;1.20;;;2.10;99.90;;;;;;5072312;27;36523;-50
2022/04/01 01:24:44;;;;;;;4.05;1.60;;;2.20;99.90;;;;;;5074052;27;39117;-51
2022/04/01 01:27:13;;;;;;;9.50;2.05;;;2.20;99.90;;;;;;5072422;28;36645;-51
2022/04/01 01:29:42;;;;;;;2.90;0.98;;;2.20;99.90;;;;;;5073177;27;39203;-50
2022/04/01 01:32:11;;;;;;;3.58;1.15;;;2.20;99.90;;;;;;5073179;28;39369;-51
2022/04/01 01:34:40;;;;;;;8.60;1.10;;;2.20;99.90;;;;;;5073275;27;37386;-52
2022/04/01 01:37:10;;;;;;;6.72;1.42;;;2.30;99.90;;;;;;5073184;27;36653;-51
2022/04/01 01:39:37;;;;;;;4.93;1.23;;;2.30;99.90;;;;;;5072888;27;37305;-51
2022/04/01 01:42:07;;;;;;;4.32;1.00;;;2.30;99.90;;;;;;5073187;27;37768;-51
2022/04/01 01:44:35;;;;;;;4.15;1.65;;;2.30;99.90;;;;;;5072590;27;38519;-52
2022/04/01 01:47:02;;;;;;;2.63;1.10;;;2.30;99.90;;;;;;5073644;28;36506;-53
2022/04/01 01:49:29;;;;;;;6.47;1.35;;;2.30;99.90;;;;;;5072251;27;38568;-51
2022/04/01 01:54:46;;;;;;;5.43;1.40;;;2.30;99.90;;;;;;5074048;28;38553;-52
2022/04/01 01:57:16;;;;;;;5.45;1.10;;;2.40;99.90;;;;;;5072630;27;36542;-53
2022/04/01 01:59:44;;;;;;;3.00;1.23;;;2.40;99.90;;;;;;5073212;28;36255;-52
2022/04/01 02:02:11;;;;;;;6.22;1.35;;;2.40;99.80;;;;;;5071623;27;37080;-49
2022/04/01 02:04:40;;;;;;;4.15;1.10;;;2.40;99.90;;;;;;5072190;27;37474;-52
2022/04/01 02:07:08;;;;;;;5.88;1.25;;;2.40;99.60;;;;;;5073251;27;38363;-51
2022/04/01 02:09:35;;;;;;;3.95;1.58;;;2.40;99.30;;;;;;5072801;28;37609;-51
2022/04/01 02:12:03;;;;;;;3.33;0.98;;;2.40;99.20;;;;;;5072812;27;36551;-50
2022/04/01 02:14:33;;;;;;;4.88;0.98;;;2.50;99.30;;;;;;5073824;28;37026;-49
2022/04/01 02:17:00;;;;;;;5.43;1.30;;;2.50;99.30;;;;;;5072880;27;35312;-51
2022/04/01 02:19:30;;;;;;;4.47;1.80;;;2.50;99.10;;;;;;5072012;27;37593;-48
2022/04/01 02:21:59;;;;;;;3.67;1.23;;;2.50;99.10;;;;;;5070990;27;39562;-51
2022/04/01 02:24:27;;;;;;;5.13;1.35;;;2.50;99.10;;;;;;5071126;28;39949;-50
2022/04/01 02:26:55;;;;;;;3.65;1.10;;;2.50;98.90;;;;;;5071270;27;36434;-52
2022/04/01 02:29:24;;;;;;;4.22;1.20;;;2.50;98.90;;;;;;5073503;28;20262;-50
2022/04/01 02:31:54;;;;;;;3.92;1.10;;;2.50;99.10;;;;;;5072268;27;37883;-50
2022/04/01 02:34:24;;;;;;;5.43;1.20;;;2.50;98.90;;;;;;5072119;27;37453;-53
2022/04/01 02:36:51;;;;;;;4.07;1.27;;;2.50;99.10;;;;;;5071940;28;35251;-50
2022/04/01 02:39:19;;;;;;;3.28;1.10;;;2.50;99.20;;;;;;5072651;27;37703;-52
2022/04/01 02:41:46;;;;;;;3.80;1.08;;;2.50;99.20;;;;;;5071700;28;37954;-49
2022/04/01 02:44:13;;;;;;;6.00;1.70;;;2.50;99.20;;;;;;5068796;27;35896;-52
2022/04/01 02:46:42;;;;;;;3.13;1.15;;;2.50;99.10;;;;;;5070566;28;38678;-48
2022/04/01 02:49:12;;;;;;;4.65;1.75;;;2.50;99.10;;;;;;5071702;28;36994;-52
2022/04/01 02:51:41;;;;;;;3.58;1.58;;;2.50;98.70;;;;;;5071542;28;37716;-49
2022/04/01 02:54:09;;;;;;;9.00;1.60;;;2.50;98.70;;;;;;5072331;27;37134;-47
2022/04/01 02:56:38;;;;;;;8.10;1.50;;;2.50;98.90;;;;;;5071633;28;38714;-52
2022/04/01 02:59:08;;;;;;;3.92;1.17;;;2.50;99.00;;;;;;5072189;28;37696;-52
2022/04/01 03:01:36;;;;;;;6.28;2.38;;;2.50;99.00;;;;;;5071506;28;38925;-51
2022/04/01 03:04:04;;;;;;;4.60;1.13;;;2.60;99.00;;;;;;5070362;28;37153;-51
2022/04/01 03:06:34;;;;;;;5.18;1.38;;;2.50;98.60;;;;;;5072052;27;36420;-51
2022/04/01 03:09:01;;;;;;;5.03;1.42;;;2.50;99.00;;;;;;5071949;28;37713;-51
2022/04/01 03:11:28;;;;;;;2.85;1.17;;;2.50;98.90;;;;;;5072269;27;37630;-49
2022/04/01 03:13:57;;;;;;;4.40;1.20;;;2.50;98.70;;;;;;5071084;27;37144;-52
2022/04/01 03:16:24;;;;;;;7.63;1.70;;;2.50;98.90;;;;;;5071980;28;36573;-52
2022/04/01 03:18:57;;;;;;;4.55;1.02;;;2.50;98.90;;;;;;5072285;27;36249;-49
2022/04/01 03:21:25;;;;;;;5.25;1.10;;;2.50;98.90;;;;;;5071260;28;38780;-51
2022/04/01 03:23:54;;;;;;;6.68;1.00;;;2.50;98.60;;;;;;5069875;27;36188;-52
2022/04/01 03:26:21;;;;;;;5.28;1.00;;;2.50;98.90;;;;;;5069747;28;37305;-53
2022/04/01 03:28:49;;;;;;;4.35;1.38;;;2.50;98.60;;;;;;5071494;27;37397;-52
2022/04/01 03:31:17;;;;;;;4.07;1.08;;;2.50;98.40;;;;;;5070830;27;37645;-50
2022/04/01 03:33:44;;;;;;;5.60;1.27;;;2.50;98.50;;;;;;5071622;28;37315;-51
2022/04/01 03:36:13;;;;;;;3.60;1.10;;;2.50;97.70;;;;;;5071158;28;36221;-52
2022/04/01 03:38:41;;;;;;;4.70;1.23;;;2.50;98.00;;;;;;5070539;27;37241;-52
2022/04/01 03:41:10;;;;;;;4.05;1.13;;;2.50;98.40;;;;;;5070822;27;36504;-51
2022/04/01 03:43:38;;;;;;;2.22;0.95;;;2.50;98.00;;;;;;5069072;27;37347;-51
2022/04/01 03:46:10;;;;;;;6.30;1.10;;;2.50;97.80;;;;;;5070247;27;35860;-52
2022/04/01 03:48:42;;;;;;;7.00;1.60;;;2.50;97.80;;;;;;5069833;28;36976;-51
2022/04/01 03:51:10;;;;;;;3.20;0.98;;;2.50;98.00;;;;;;5069673;28;38072;-52
2022/04/01 03:53:40;;;;;;;4.20;0.90;;;2.50;97.70;;;;;;5070615;28;38137;-53
2022/04/01 03:56:10;;;;;;;5.72;1.02;;;2.60;97.90;;;;;;5070972;27;36100;-50
2022/04/01 03:58:37;;;;;;;2.92;0.90;;;2.60;97.80;;;;;;5071388;27;37848;-51
2022/04/01 04:01:05;;;;;;;2.83;0.98;;;2.60;97.80;;;;;;5069114;27;38018;-51
2022/04/01 04:03:33;;;;;;;5.05;1.08;;;2.60;97.60;;;;;;5069726;27;37665;-53
2022/04/01 04:06:01;;;;;;;3.15;1.00;;;2.60;97.30;;;;;;5071417;28;37382;-52
2022/04/01 04:08:29;;;;;;;4.22;1.20;;;2.60;97.40;;;;;;5069898;28;38874;-51
2022/04/01 04:10:56;;;;;;;7.65;1.70;;;2.60;97.20;;;;;;5070121;27;36195;-51
2022/04/01 04:13:26;;;;;;;2.63;1.02;;;2.60;97.60;;;;;;5071285;27;37423;-53
2022/04/01 04:16:04;;;;;;;3.67;1.15;;;2.70;97.40;;;;;;5070981;27;35310;-51
2022/04/01 04:18:38;;;;;;;4.18;0.95;;;2.60;97.10;;;;;;5071085;27;37885;-52
2022/04/01 04:21:10;;;;;;;;;;;2.60;96.90;;;;;;5070905;27;37715;-51
2022/04/01 04:23:44;;;;;;;3.97;0.90;;;2.60;95.50;;;;;;5070667;27;36716;-52
2022/04/01 04:26:15;;;;;;;7.82;1.05;;;2.60;97.10;;;;;;5070320;27;35863;-51
2022/04/01 04:28:50;;;;;;;5.45;1.00;;;2.60;97.10;;;;;;5071308;27;39084;-51
2022/04/01 04:31:26;;;;;;;4.47;1.33;;;2.60;96.90;;;;;;5069437;28;37931;-51
2022/04/01 04:33:56;;;;;;;5.82;1.33;;;2.70;96.80;;;;;;5070462;28;37486;-51
2022/04/01 04:36:35;;;;;;;5.85;1.30;;;2.70;96.80;;;;;;5071356;27;34519;-52
2022/04/01 04:39:05;;;;;;;3.75;1.00;;;2.70;96.80;;;;;;5068971;27;37748;-54
2022/04/01 04:41:33;;;;;;;4.68;1.17;;;2.70;96.70;;;;;;5070339;27;36454;-51
2022/04/01 04:44:03;;;;;;;3.25;1.23;;;2.70;96.70;;;;;;5068631;28;36957;-51
2022/04/01 04:46:31;;;;;;;5.05;1.30;;;2.70;96.90;;;;;;5070422;27;37551;-52
2022/04/01 04:48:59;;;;;;;4.63;1.20;;;2.70;96.90;;;;;;5070678;27;38589;-51
2022/04/01 04:51:28;;;;;;;6.53;1.52;;;2.70;96.40;;;;;;5072149;27;36121;-52
2022/04/01 04:53:59;;;;;;;4.88;1.10;;;2.70;96.80;;;;;;5073502;27;37174;-50
2022/04/01 04:56:27;;;;;;;4.68;1.42;;;2.70;96.90;;;;;;5073453;28;35309;-51
2022/04/01 04:58:56;;;;;;;4.00;1.30;;;2.70;96.60;;;;;;5073828;28;37711;-50
2022/04/01 05:01:34;;;;;;;6.15;1.33;;;2.70;96.70;;;;;;5072023;28;38485;-51
2022/04/01 05:04:27;;;;;;;8.02;1.48;;;2.70;96.80;;;;;;5072959;27;37472;-52
2022/04/01 05:07:06;;;;;;;6.60;0.90;;;2.70;96.30;;;;;;5072687;28;35119;-50
2022/04/01 05:09:40;;;;;;;3.45;1.20;;;2.70;96.50;;;;;;5072052;27;37805;-55
2022/04/01 05:12:12;;;;;;;;;;;2.70;96.70;;;;;;5072166;27;37806;-49
2022/04/01 05:14:54;;;;;;;3.30;1.00;;;2.70;95.70;;;;;;5073506;27;37985;-48
2022/04/01 05:17:27;;;;;;;3.00;1.00;;;2.70;96.70;;;;;;5073154;28;36093;-52
2022/04/01 05:19:59;;;;;;;4.75;1.20;;;2.70;96.30;;;;;;5070999;28;36898;-52
2022/04/01 05:22:37;;;;;;;5.53;1.05;;;2.70;96.70;;;;;;5070857;27;39707;-50
2022/04/01 05:25:06;;;;;;;5.40;1.38;;;2.70;96.90;;;;;;5072756;28;40000;-51
2022/04/01 05:27:41;;;;;;;5.03;1.73;;;2.70;97.10;;;;;;5072814;27;35201;-51
2022/04/01 05:30:13;;;;;;;4.93;1.30;;;2.70;96.80;;;;;;5073391;28;39446;-52
2022/04/01 05:32:57;;;;;;;4.63;1.05;;;2.70;96.60;;;;;;5072160;28;38378;-52
2022/04/01 05:35:27;;;;;;;4.20;1.48;;;2.80;96.40;;;;;;5071762;27;38681;-52
2022/04/01 05:37:57;;;;;;;3.13;0.90;;;2.80;96.70;;;;;;5072240;28;37100;-52
2022/04/01 05:40:25;;;;;;;4.05;1.00;;;2.80;96.60;;;;;;5071920;27;38289;-52
2022/04/01 05:42:53;;;;;;;3.80;0.95;;;2.80;96.80;;;;;;5069076;28;40167;-49
2022/04/01 05:45:21;;;;;;;4.18;1.55;;;2.70;96.40;;;;;;5071108;27;37476;-51
2022/04/01 05:47:50;;;;;;;4.65;1.42;;;2.80;96.50;;;;;;5072931;27;35144;-52
2022/04/01 05:50:19;;;;;;;2.75;1.02;;;2.80;96.60;;;;;;5072526;27;37549;-50
2022/04/01 05:52:47;;;;;;;5.40;1.30;;;2.80;96.50;;;;;;5072067;28;38324;-52
2022/04/01 05:55:16;;;;;;;4.13;0.98;;;2.80;96.50;;;;;;5071850;27;37347;-51
2022/04/01 05:57:44;;;;;;;5.95;1.17;;;2.80;96.50;;;;;;5072177;28;36663;-52
2022/04/01 06:00:12;;;;;;;5.28;1.00;;;2.80;96.30;;;;;;5073323;28;37890;-53
2022/04/01 06:03:26;;;;;;;3.65;0.82;;;2.80;96.00;;;;;;5070963;27;38897;-52
2022/04/01 06:05:57;;;;;;;4.15;1.05;;;2.80;95.60;;;;;;4995763;28;37365;-53
2022/04/01 06:08:37;;;;;;;3.85;1.10;;;2.80;95.90;;;;;;4995868;28;36772;-52
2022/04/01 06:11:15;;;;;;;5.28;1.05;;;2.90;96.00;;;;;;5044158;28;40357;-50
2022/04/01 06:13:51;;;;;;;2.00;1.02;;;2.90;95.70;;;;;;5071223;27;37970;-53
2022/04/01 06:16:24;;;;;;;5.07;1.13;;;2.90;95.60;;;;;;5071390;28;37925;-49
2022/04/01 06:19:04;;;;;;;4.78;1.00;;;2.90;96.00;;;;;;5072028;28;36434;-53
2022/04/01 06:21:38;;;;;;;8.23;1.45;;;2.90;95.40;;;;;;5070763;27;39078;-51
2022/04/01 06:24:09;;;;;;;5.75;1.58;;;2.90;95.20;;;;;;5069495;28;37896;-49
2022/04/01 06:26:40;;;;;;;5.75;1.10;;;2.90;95.80;;;;;;5070526;27;37328;-52
2022/04/01 06:29:34;;;;;;;3.50;1.02;;;2.90;95.20;;;;;;5070678;28;38323;-51
2022/04/01 06:32:05;;;;;;;3.08;0.73;;;3.00;94.90;;;;;;5068554;28;37651;-51
2022/04/01 06:34:55;;;;;;;2.97;1.00;;;3.00;95.10;;;;;;5062715;27;37553;-52
2022/04/01 06:37:27;;;;;;;6.00;2.42;;;3.00;95.10;;;;;;5070781;27;38467;-51
2022/04/01 06:40:10;;;;;;;3.63;1.17;;;3.00;94.80;;;;;;5072814;27;37181;-52
2022/04/01 06:42:39;;;;;;;4.63;1.27;;;3.00;94.60;;;;;;5071079;28;38380;-51
2022/04/01 06:45:08;;;;;;;3.67;1.40;;;3.00;95.20;;;;;;5071885;27;37756;-53
2022/04/01 06:47:36;;;;;;;5.40;1.20;;;3.10;95.10;;;;;;5073077;27;38758;-52
2022/04/01 06:50:05;;;;;;;6.85;1.13;;;3.10;94.70;;;;;;5072894;27;36526;-52
2022/04/01 06:52:33;;;;;;;3.75;1.13;;;3.10;95.10;;;;;;5071316;27;36133;-52
2022/04/01 06:55:01;;;;;;;5.95;1.30;;;3.10;95.10;;;;;;5071719;28;37969;-53
2022/04/01 06:57:28;;;;;;;3.35;1.13;;;3.10;95.10;;;;;;5072563;27;37977;-51
2022/04/01 06:59:56;;;;;;;2.25;0.80;;;3.20;95.20;;;;;;5071139;27;35468;-51
2022/04/01 07:02:24;;;;;;;4.78;1.15;;;3.20;95.40;;;;;;5069369;28;36139;-52
2022/04/01 07:04:51;;;;;;;5.82;1.10;;;3.20;95.00;;;;;;5072121;27;38595;-53
2022/04/01 07:07:36;;;;;;;8.38;1.42;;;3.20;95.00;;;;;;5071703;27;38038;-52
2022/04/01 07:10:04;;;;;;;3.85;1.20;;;3.20;95.10;;;;;;5072722;28;36482;-59
2022/04/01 07:12:32;;;;;;;4.20;1.25;;;3.30;95.10;;;;;;5070867;27;38715;-58
2022/04/01 07:15:02;;;;;;;4.43;1.20;;;3.30;95.10;;;;;;5069012;27;37762;-58
2022/04/01 07:17:35;;;;;;;6.30;1.83;;;3.30;94.90;;;;;;5070253;28;39905;-59
2022/04/01 07:20:11;;;;;;;2.95;0.95;;;3.30;94.30;;;;;;5069171;27;36732;-59
2022/04/01 07:22:41;;;;;;;3.40;1.17;;;3.30;94.00;;;;;;5070039;27;37310;-52
2022/04/01 07:25:11;;;;;;;5.10;1.23;;;3.40;93.30;;;;;;5071966;27;37293;-53
2022/04/01 07:27:39;;;;;;;6.20;0.77;;;3.30;92.10;;;;;;5071164;27;36611;-52
2022/04/01 07:30:08;;;;;;;1.95;0.77;;;3.30;92.10;;;;;;5072343;27;36617;-53
2022/04/01 07:32:37;;;;;;;2.17;0.80;;;3.30;90.10;;;;;;5072065;28;37133;-53
2022/04/01 07:35:07;;;;;;;2.60;1.20;;;3.40;90.20;;;;;;5072880;27;37193;-51
2022/04/01 07:37:34;;;;;;;6.43;1.00;;;3.30;90.50;;;;;;5072815;27;37667;-51
2022/04/01 07:40:16;;;;;;;5.20;1.00;;;3.40;90.30;;;;;;5072405;27;35153;-52
2022/04/01 07:42:43;;;;;;;2.33;0.90;;;3.40;91.10;;;;;;5070184;27;38675;-54
2022/04/01 07:45:12;;;;;;;3.28;0.90;;;3.40;90.90;;;;;;5070444;28;36250;-52
2022/04/01 07:47:42;;;;;;;8.38;1.48;;;3.40;91.30;;;;;;5071664;27;36068;-54
2022/04/01 07:50:09;;;;;;;2.40;0.98;;;3.30;90.90;;;;;;5071330;27;36463;-52
2022/04/01 07:52:40;;;;;;;3.10;0.95;;;3.30;90.20;;;;;;5069922;28;38788;-52
2022/04/01 07:55:10;;;;;;;3.33;1.00;;;3.30;91.30;;;;;;5067509;27;37451;-51
2022/04/01 07:57:38;;;;;;;4.38;1.30;;;3.20;91.60;;;;;;5067130;28;36552;-52
2022/04/01 08:00:07;;;;;;;5.45;1.60;;;3.20;91.80;;;;;;5069450;27;37730;-53
2022/04/01 08:02:35;;;;;;;4.80;1.13;;;3.30;92.30;;;;;;5069536;27;37542;-52
2022/04/01 08:05:02;;;;;;;3.30;1.27;;;3.20;92.90;;;;;;5070755;27;38622;-51
2022/04/01 08:07:29;;;;;;;6.45;1.38;;;3.20;93.60;;;;;;5070584;27;36904;-54
2022/04/01 08:09:58;;;;;;;5.00;1.30;;;3.20;93.70;;;;;;5071271;28;36907;-52
2022/04/01 08:12:26;;;;;;;5.40;1.30;;;3.20;94.20;;;;;;5071134;28;37763;-52
2022/04/01 08:14:54;;;;;;;4.45;1.20;;;3.20;94.50;;;;;;5071910;27;38007;-51
2022/04/01 08:17:21;;;;;;;3.97;1.20;;;3.30;94.60;;;;;;5071666;27;36152;-51
2022/04/01 08:19:50;;;;;;;4.85;1.48;;;3.20;94.50;;;;;;5071422;27;36748;-52
2022/04/01 08:22:19;;;;;;;6.40;1.38;;;3.20;95.60;;;;;;5070632;28;37794;-53
2022/04/01 08:24:46;;;;;;;5.32;1.35;;;3.20;95.20;;;;;;5072105;27;37828;-52
2022/04/01 08:27:14;;;;;;;4.70;1.30;;;3.20;95.20;;;;;;5074766;27;37807;-51
2022/04/01 08:29:44;;;;;;;4.88;1.55;;;3.30;94.70;;;;;;5074623;27;36484;-52
2022/04/01 08:32:11;;;;;;;4.05;1.20;;;3.20;95.30;;;;;;5075356;28;37962;-54
2022/04/01 08:34:39;;;;;;;4.32;1.02;;;3.30;94.70;;;;;;5074250;27;38328;-52
2022/04/01 08:37:07;;;;;;;5.32;1.35;;;3.30;94.40;;;;;;5074776;28;37218;-53
2022/04/01 08:39:35;;;;;;;5.20;1.48;;;3.40;94.30;;;;;;5074470;28;36470;-54
2022/04/01 08:42:04;;;;;;;4.15;1.23;;;3.50;93.90;;;;;;5074807;27;36397;-53
2022/04/01 08:44:32;;;;;;;3.55;1.15;;;3.60;93.40;;;;;;5073835;28;36674;-54
2022/04/01 08:47:00;;;;;;;3.25;1.02;;;3.60;92.60;;;;;;5075099;28;37515;-51
2022/04/01 08:49:28;;;;;;;4.65;1.30;;;3.60;91.20;;;;;;5075106;27;35219;-53
2022/04/01 08:51:56;;;;;;;7.45;1.20;;;3.60;91.70;;;;;;5073873;28;37587;-53
2022/04/01 08:54:24;;;;;;;3.60;1.10;;;3.70;92.40;;;;;;5071810;27;37811;-50
2022/04/01 08:56:51;;;;;;;3.78;1.15;;;3.80;92.40;;;;;;5072525;27;37557;-50
2022/04/01 08:59:18;;;;;;;6.18;1.50;;;3.90;91.30;;;;;;5073407;27;35894;-53
2022/04/01 09:01:46;;;;;;;2.88;1.08;;;4.00;91.40;;;;;;5073171;28;37448;-51
2022/04/01 09:04:20;;;;;;;5.60;1.50;;;4.10;91.20;;;;;;5070615;27;37668;-52
2022/04/01 09:06:47;;;;;;;4.45;1.30;;;4.10;91.10;;;;;;5073672;27;38950;-52
2022/04/01 09:09:25;;;;;;;2.75;1.38;;;4.10;90.70;;;;;;5072510;27;36510;-51
2022/04/01 09:12:07;;;;;;;4.65;1.13;;;4.10;88.80;;;;;;5073421;27;36822;-50
2022/04/01 09:14:35;;;;;;;1.90;0.90;;;4.10;89.00;;;;;;5070391;28;36512;-53
2022/04/01 09:17:03;;;;;;;5.13;1.33;;;4.10;90.40;;;;;;5073655;28;36962;-53
2022/04/01 09:19:33;;;;;;;3.60;1.30;;;4.10;89.00;;;;;;5073999;28;36736;-53
2022/04/01 09:22:19;;;;;;;5.22;1.35;;;4.10;88.50;;;;;;5073873;27;39437;-53
2022/04/01 09:24:58;;;;;;;4.18;1.05;;;4.00;86.30;;;;;;5073653;27;37429;-53
2022/04/01 09:27:46;;;;;;;4.85;1.30;;;3.90;85.10;;;;;;5068716;28;37387;-53
2022/04/01 09:30:16;;;;;;;2.58;1.00;;;4.00;86.60;;;;;;5072669;28;39479;-52
2022/04/01 09:32:46;;;;;;;3.83;1.27;;;4.00;88.80;;;;;;5071646;27;38639;-50
2022/04/01 09:35:15;;;;;;;3.75;1.30;;;4.10;89.60;;;;;;5073761;27;37284;-51
2022/04/01 09:37:44;;;;;;;10.82;1.42;;;4.20;88.50;;;;;;5071450;27;38087;-53
2022/04/01 09:40:13;;;;;;;3.63;1.30;;;4.20;85.60;;;;;;5073489;27;36643;-54
2022/04/01 09:42:47;;;;;;;3.15;1.40;;;4.30;86.30;;;;;;5072291;27;37693;-53
2022/04/01 09:45:20;;;;;;;4.72;1.70;;;4.30;84.80;;;;;;5072744;28;36834;-53
2022/04/01 09:47:58;;;;;;;2.88;1.20;;;4.40;86.40;;;;;;5070378;28;37632;-53
2022/04/01 09:50:29;;;;;;;3.97;1.38;;;4.40;83.30;;;;;;5073266;27;37012;-53
2022/04/01 09:53:07;;;;;;;3.42;1.55;;;4.40;82.40;;;;;;5073799;27;36216;-52
2022/04/01 09:55:37;;;;;;;3.60;1.23;;;4.50;84.00;;;;;;5073728;28;39188;-52
2022/04/01 09:58:05;;;;;;;4.88;1.50;;;4.60;86.50;;;;;;5073488;28;37541;-53
2022/04/01 10:00:33;;;;;;;6.13;1.30;;;4.60;87.60;;;;;;5071857;27;37308;-54
2022/04/01 10:03:00;;;;;;;4.43;1.50;;;4.70;86.30;;;;;;5072184;28;36095;-52
2022/04/01 10:05:29;;;;;;;6.40;1.30;;;4.70;86.80;;;;;;5074012;27;41529;-50
2022/04/01 10:07:58;;;;;;;5.65;1.40;;;4.80;87.80;;;;;;5073454;27;37646;-51
2022/04/01 10:10:26;;;;;;;3.45;1.38;;;4.90;87.80;;;;;;5072318;27;36081;-53
2022/04/01 10:12:57;;;;;;;6.45;1.80;;;5.10;88.10;;;;;;5072484;27;37294;-51
2022/04/01 10:15:28;;;;;;;3.50;1.30;;;5.40;87.20;;;;;;5073080;27;37848;-53
2022/04/01 10:17:58;;;;;;;5.38;1.20;;;5.50;86.80;;;;;;5072659;28;39401;-51
2022/04/01 10:20:33;;;;;;;3.80;1.75;;;5.60;81.90;;;;;;5071770;27;36412;-53
2022/04/01 10:23:03;;;;;;;4.15;1.15;;;5.60;80.00;;;;;;5072171;27;37774;-52
2022/04/01 10:25:36;;;;;;;5.10;1.40;;;5.70;80.00;;;;;;5072525;27;38496;-51
2022/04/01 10:28:05;;;;;;;3.67;1.15;;;5.80;79.20;;;;;;5072546;27;36106;-53
2022/04/01 10:30:34;;;;;;;5.10;1.30;;;5.90;76.90;;;;;;5073073;28;36295;-53
2022/04/01 10:33:06;;;;;;;3.50;1.20;;;6.00;75.40;;;;;;5073176;28;37547;-53
2022/04/01 10:35:37;;;;;;;3.70;1.10;;;6.00;67.40;;;;;;5073131;27;37903;-50
2022/04/01 10:38:19;;;;;;;3.67;1.10;;;6.10;67.60;;;;;;5072809;28;37579;-52
2022/04/01 10:40:50;;;;;;;3.95;1.08;;;6.20;65.60;;;;;;5072793;27;36796;-51
2022/04/01 10:43:20;;;;;;;5.20;1.17;;;6.20;65.40;;;;;;5071551;27;37674;-51
2022/04/01 10:46:05;;;;;;;7.05;1.05;;;6.20;63.80;;;;;;5072896;28;38499;-53
2022/04/01 10:51:41;;;;;;;2.83;0.90;;;6.30;60.90;;;;;;5068906;28;38570;-54
2022/04/01 10:54:42;;;;;;;2.78;0.82;;;6.30;60.70;;;;;;5069998;27;37933;-52
2022/04/01 10:57:11;;;;;;;4.15;1.10;;;6.20;59.60;;;;;;5070921;27;37888;-53
2022/04/01 10:59:41;;;;;;;3.67;1.40;;;6.20;62.00;;;;;;5071838;27;37250;-51
2022/04/01 11:02:10;;;;;;;6.25;1.50;;;6.10;66.10;;;;;;5067909;28;36213;-54
2022/04/01 11:04:39;;;;;;;6.22;1.73;;;6.10;67.40;;;;;;5070350;27;38273;-51
2022/04/01 11:07:11;;;;;;;2.92;1.00;;;6.20;67.90;;;;;;5070372;27;38953;-52
2022/04/01 11:09:46;;;;;;;2.25;1.02;;;6.20;64.00;;;;;;5070887;27;38646;-51
2022/04/01 11:12:29;;;;;;;3.92;1.10;;;6.20;62.30;;;;;;5070933;28;37186;-53
2022/04/01 11:15:16;;;;;;;3.47;1.17;;;6.20;62.60;;;;;;5068339;27;37838;-52
2022/04/01 11:18:12;;;;;;;2.67;0.90;;;6.20;60.90;;;;;;5068953;27;37848;-53
2022/04/01 11:20:42;;;;;;;2.15;0.73;;;6.20;61.10;;;;;;5069144;28;38439;-52
2022/04/01 11:23:13;;;;;;;3.58;0.85;;;6.30;61.50;;;;;;5070207;27;36488;-51
2022/04/01 11:25:51;;;;;;;5.20;1.30;;;6.30;59.90;;;;;;5068541;27;39784;-50
2022/04/01 11:28:18;;;;;;;1.27;0.60;;;6.30;61.10;;;;;;5067502;27;37622;-54
2022/04/01 11:31:04;;;;;;;3.28;0.80;;;6.30;62.80;;;;;;5068269;28;37259;-53
2022/04/01 11:33:31;;;;;;;3.88;1.13;;;6.40;60.70;;;;;;5069081;28;36808;-53
2022/04/01 11:35:59;;;;;;;2.60;0.63;;;6.40;59.30;;;;;;5068715;27;36129;-52
2022/04/01 11:38:30;;;;;;;2.63;0.85;;;6.30;58.60;;;;;;5068302;27;37633;-53
2022/04/01 11:41:00;;;;;;;2.03;0.85;;;6.20;57.60;;;;;;5069180;28;37892;-52
2022/04/01 11:43:29;;;;;;;2.85;1.25;;;6.30;57.60;;;;;;5068959;27;35107;-52
2022/04/01 11:45:58;;;;;;;6.15;1.00;;;6.40;58.20;;;;;;5070310;27;36362;-51
2022/04/01 11:48:29;;;;;;;3.65;0.88;;;6.40;57.80;;;;;;5069196;28;38805;-50
2022/04/01 11:50:58;;;;;;;2.15;0.80;;;6.30;57.20;;;;;;5069857;28;36931;-52
2022/04/01 11:53:29;;;;;;;3.53;0.95;;;6.30;58.80;;;;;;5068856;28;36542;-52
2022/04/01 11:55:58;;;;;;;3.10;0.88;;;6.30;60.50;;;;;;5068614;27;38329;-56
2022/04/01 11:58:26;;;;;;;3.67;1.02;;;6.40;59.60;;;;;;5069140;28;37660;-51
2022/04/01 12:00:54;;;;;;;4.10;1.20;;;6.30;59.70;;;;;;5069198;27;37486;-52
2022/04/01 12:03:21;;;;;;;3.63;0.90;;;6.20;60.90;;;;;;5069463;28;36368;-52
2022/04/01 12:08:41;;;;;;;3.60;1.30;;;6.10;60.60;;;;;;5069636;27;37727;-53
2022/04/01 12:08:43;;;;;;;5.20;1.38;;;6.00;58.00;;;;;;5069469;28;39852;-53
2022/04/01 12:11:10;;;;;;;3.35;1.00;;;5.80;60.20;;;;;;5069717;27;40313;-50
2022/04/01 12:13:48;;;;;;;2.90;0.80;;;5.70;60.40;;;;;;5066767;28;36508;-51
2022/04/01 12:16:18;;;;;;;5.65;1.40;;;5.70;61.60;;;;;;5067771;27;38291;-51
2022/04/01 12:18:47;;;;;;;2.67;1.08;;;5.70;61.80;;;;;;5068964;27;38979;-50
2022/04/01 12:21:19;;;;;;;4.18;1.10;;;5.70;63.50;;;;;;5069682;28;37344;-51
2022/04/01 12:23:50;;;;;;;3.70;1.00;;;5.70;62.40;;;;;;5068698;28;37354;-49
2022/04/01 12:26:18;;;;;;;6.22;1.50;;;5.70;63.20;;;;;;5070804;28;36248;-52
2022/04/01 12:28:49;;;;;;;3.15;1.63;;;5.80;66.40;;;;;;5070184;27;38186;-52
2022/04/01 12:31:18;;;;;;;3.85;1.10;;;5.90;68.50;;;;;;5070338;28;37844;-50
2022/04/01 12:33:48;;;;;;;6.00;1.33;;;5.90;69.10;;;;;;5066786;28;34874;-52
2022/04/01 12:36:18;;;;;;;4.22;1.40;;;5.90;70.10;;;;;;5070294;28;38284;-50
2022/04/01 12:39:04;;;;;;;4.00;1.15;;;5.80;70.00;;;;;;5070625;27;38129;-52
2022/04/01 12:41:32;;;;;;;3.47;1.25;;;5.70;70.20;;;;;;5070927;28;38320;-49
2022/04/01 12:44:02;;;;;;;6.80;1.58;;;5.60;73.80;;;;;;5069836;28;35191;-52
2022/04/01 12:46:30;;;;;;;3.85;1.10;;;5.60;73.10;;;;;;5070978;27;37684;-53
2022/04/01 12:49:00;;;;;;;5.95;1.25;;;5.60;71.70;;;;;;5069358;27;39473;-53
2022/04/01 12:51:29;;;;;;;4.50;1.20;;;5.60;71.80;;;;;;5071070;27;38339;-49
2022/04/01 12:54:00;;;;;;;4.57;1.50;;;5.60;70.90;;;;;;5070492;27;36359;-51
2022/04/01 12:56:31;;;;;;;2.90;1.20;;;5.70;70.40;;;;;;5069819;28;38323;-49
2022/04/01 12:58:59;;;;;;;4.60;0.90;;;5.60;71.20;;;;;;5068361;27;37623;-52
2022/04/01 13:01:28;;;;;;;4.38;1.25;;;5.60;69.90;;;;;;5068860;27;37396;-52
2022/04/01 13:03:58;;;;;;;4.25;1.23;;;5.70;70.60;;;;;;5067664;27;36817;-52
2022/04/01 13:06:26;;;;;;;3.38;1.10;;;5.70;71.60;;;;;;5069171;27;37543;-52
2022/04/01 13:09:03;;;;;;;3.90;1.17;;;5.70;71.40;;;;;;5068937;28;36533;-51
2022/04/01 13:11:40;;;;;;;3.78;0.93;;;5.80;71.10;;;;;;5070314;28;37608;-52
2022/04/01 13:14:19;;;;;;;4.25;0.95;;;5.80;70.90;;;;;;5072218;27;36545;-53
2022/04/01 13:16:47;;;;;;;4.57;1.13;;;5.80;68.30;;;;;;5070035;28;37339;-52
2022/04/01 13:19:33;;;;;;;3.38;1.05;;;5.90;69.20;;;;;;5071555;27;36231;-50
2022/04/01 13:22:02;;;;;;;5.57;1.33;;;5.80;68.80;;;;;;5071986;27;37337;-49